Messwerte Lakeview

Temperatur

Temperatur
°C
1624334400 21.00 21.00
1624338000 22.00 22.00 23
1624341600 23.00 23.00 22
1624345200 0.00 0.00
1624348800 1.00 1.00 17
1624352400 2.00 2.00 16
1624356000 3.00 3.00 15
1624359600 4.00 4.00 15
1624363200 5.00 5.00 14
1624366800 6.00 6.00 12
1624370400 7.00 7.00
1624374000 8.00 8.00 15
1624377600 9.00 9.00 17
1624381200 10.00 10.00
1624384800 11.00 11.00
1624388400 12.00 12.00 22
1624392000 13.00 13.00 23
1624395600 14.00 14.00 26
1624399200 15.00 15.00 28
1624402800 16.00 16.00 26
1624406400 17.00 17.00 25
1624410000 18.00 18.00 25
1624413600 19.00 19.00 26
1624417200 20.00 20.00 21

Aktuellste Messwerte

Wettercharakter
Wetter: meist klar
Temperatur
19 °C
Feuchtigkeit
50 %
Wind
20 km/hWindrichtung: Nord
Luftdruck
1015 hPa
Messzeit: 22. Juni 2021, 21.00Datenquelle: METAR

Weitere Messstationen in der Nähe

Messstation Temperatur Entfernung
Alturas 23 °C 76 km
Klamath Falls 21 °C 109 km
Montague 25 °C 176 km
Mount Shasta 23 °C 185 km
Burns 19 °C 197 km
Medford 24 °C 205 km
Rome 17 °C 214 km

Wind

Windrichtung Böen Mittelwind
° km/h km/h
1624334400 21.00 20.00 - 21.00
1624338000 22.00 21.00 - 22.00 20° 30 15
1624341600 23.00 22.00 - 23.00 10° 15
1624345200 0.00 23.00 - 0.00
1624348800 1.00 0.00 - 1.00 80° 15
1624352400 2.00 1.00 - 2.00 100° 10
1624356000 3.00 2.00 - 3.00 330° 15
1624359600 4.00 3.00 - 4.00 320° 5
1624363200 5.00 4.00 - 5.00 290° 5
1624366800 6.00 5.00 - 6.00 330° 5
1624370400 7.00 6.00 - 7.00
1624374000 8.00 7.00 - 8.00 20° 10
1624377600 9.00 8.00 - 9.00 340° 10
1624381200 10.00 9.00 - 10.00
1624384800 11.00 10.00 - 11.00
1624388400 12.00 11.00 - 12.00 350° 45 30
1624392000 13.00 12.00 - 13.00 360° 35 25
1624395600 14.00 13.00 - 14.00 290° 10
1624399200 15.00 14.00 - 15.00
1624402800 16.00 15.00 - 16.00 230° 10
1624406400 17.00 16.00 - 17.00 190° 10
1624410000 18.00 17.00 - 18.00 70° 20
1624413600 19.00 18.00 - 19.00 180° 10
1624417200 20.00 19.00 - 20.00 290° 10

Ihre Wetterstation

Fehlt Ihre Wetterstation auf unserem Portal?

Schreiben Sie an network@meteonews.ch

Klima

Wann ist es am wärmsten? Wann regnet es am wenigsten? Unsere Klimadaten geben Auskunft.